Предлагаем Вашему вниманию английскую версию страницы: AUTOTAF.ME 26479 - aviation weather forecast Toropets

AUTOTAF 26479 - авиапрогноз Торопец

Сегодня рассвет 04:11 UTC, восход солнца 04:51 UTC,
местный полдень 09:37 UTC, заход солнца 14:23 UTC,
наступление темноты 15:02 UTC.

Краткий прогноз 26479 на 9 часов

AUTOTAF.ME 26479 260800Z 2609/2618 17004MPS 9999 SCT007    
  BECMG 2610/2612 SCT011  
  FM261500 16004MPS 5000 BR BKN013 
  FM261800 16004MPS 9999 BKN013

Детальный прогноз 26479 на 24 часа

AUTOTAF.ME 26479 260800Z 2609/2709 17004MPS 9999 SCT007 TX10/2612Z TN06/2703Z  
  BECMG 2610/2612 SCT011  
  FM261500 16004MPS 5000 BR BKN013 
  FM261800 16004MPS 9999 BKN013 
  FM262100 16004MPS 5000 BR BKN013 
  FM270000 16004MPS 3000 BR BKN005  
  FM270600 16005G13MPS 9999 BKN012

Подробный табличный прогноз

Время (UTC) miniAUTOTAF на 3 ч WX FZLVL
M AGL
ICE TURB Т
(°С)
Тd
(°С)
f(%) QNH
(гПа)
WIND/T
06 17003MPS 3000 BR BKN005 BR 2850 6 5 97 1019 ...
09 17004MPS 9999 SCT007 2850 8 6 86 1019 ...
12 17004MPS 9999 SCT011 2550 10 6 80 1019 ...
15 16004MPS 5000 BR BKN013 BR 2400 MOD FL90/FL100 8 6 89 1018 ...
18 16004MPS 9999 BKN013 2250 FBL FL90/FL190 8 6 88 1019 ...
21 16004MPS 5000 BR BKN013 BR 2400 MOD FL90/FL170 7 6 89 1018 ...
27.10.2020
00 16004MPS 3000 BR BKN005 BR 2400 MOD FL90/FL190 7 6 93 1019 ...
03 16005G12MPS 3000 BR BKN005 BR 2550 FBL FL110/FL170 6 5 94 1017 ...
06 16005G13MPS 9999 BKN012 2550 MOD FL90/FL110 MOD FL30/FL40 7 5 89 1018 ...
09 16005G11MPS 9999 BKN012 2550 FBL FL110/FL120 MOD FL30/FL40 9 6 78 1017 ...
12 17005G12MPS 9999 BKN013 2550 FBL FL110/FL120 MOD SFC/FL30 11 7 76 1017 ...
15 17005G13MPS 9999 BKN012 2550 MOD FL90/FL100 MOD SFC/FL30 9 7 84 1017 ...
18 18005G13MPS 5000 BR BKN012 BR 2400 MOD FL90/FL100 9 7 86 1017 ...
21 18004MPS 5000 BR BKN012 BR 2400 MOD FL90/FL100 9 7 89 1017 ...
28.10.2020
00 17004MPS 3000 BR BKN005 BR 2400 MOD FL90/FL100 8 6 93 1016 ...
03 17005G12MPS 3000 BR BKN005 BR 2250 MOD FL90/FL100 7 6 94 1014 ...


Широта 56.5°, долгота 31.6°, высота 187 м абс.
Средняя высота рельефа местности 201 м абс.
Прогнозы обновляются четыре раза в сутки: в 02, 08, 14, 20 ч всемирного времени.


Выбрать прогноз по другой модели Торопец
Онлайн-сводка гроз по Торопец (для РФ и ближнего зарубежья)
Карта фактических гроз в окрестностях Торопец
Динамические прогностические карты (ventusky.com)
Прогностическая карта высоты нижней границы облаков по Торопец (windy.com)
Выбрать другой город

Прогноз предназначен для личного научно-познавательного использования частными лицами
и не предназначен для принятия важных решений и выполнения реальных полётов воздушных судов

При копировании или ином использовании любых материалов данного сайта ссылка на © meteocenter.asia обязательна.

1.05/1.5